sensor_id;sensor_type;location;lat;lon;timestamp;P1;durP1;ratioP1;P2;durP2;ratioP2
3815;SDS011;1923;48.154;11.536;2023-06-19T00:02:23;9.20;;;6.57;;
3815;SDS011;1923;48.154;11.536;2023-06-19T00:04:52;10.07;;;6.57;;
3815;SDS011;1923;48.154;11.536;2023-06-19T00:07:20;8.67;;;6.10;;
3815;SDS011;1923;48.154;11.536;2023-06-19T00:09:48;11.17;;;7.00;;
3815;SDS011;1923;48.154;11.536;2023-06-19T00:12:16;9.00;;;6.47;;
3815;SDS011;1923;48.154;11.536;2023-06-19T00:14:45;9.60;;;6.50;;
3815;SDS011;1923;48.154;11.536;2023-06-19T00:17:13;12.63;;;7.93;;
3815;SDS011;1923;48.154;11.536;2023-06-19T00:19:43;10.40;;;6.50;;
3815;SDS011;1923;48.154;11.536;2023-06-19T00:22:11;9.77;;;6.70;;
3815;SDS011;1923;48.154;11.536;2023-06-19T00:24:39;11.93;;;6.50;;
3815;SDS011;1923;48.154;11.536;2023-06-19T00:27:07;10.57;;;6.90;;
3815;SDS011;1923;48.154;11.536;2023-06-19T00:29:35;10.20;;;6.83;;
3815;SDS011;1923;48.154;11.536;2023-06-19T00:32:05;10.53;;;6.73;;
3815;SDS011;1923;48.154;11.536;2023-06-19T00:34:33;11.33;;;7.03;;
3815;SDS011;1923;48.154;11.536;2023-06-19T00:37:03;9.40;;;6.37;;
3815;SDS011;1923;48.154;11.536;2023-06-19T00:39:32;10.20;;;7.30;;
3815;SDS011;1923;48.154;11.536;2023-06-19T00:42:00;12.47;;;7.87;;
3815;SDS011;1923;48.154;11.536;2023-06-19T00:44:28;10.60;;;7.10;;
3815;SDS011;1923;48.154;11.536;2023-06-19T00:46:57;10.43;;;7.03;;
3815;SDS011;1923;48.154;11.536;2023-06-19T00:49:28;14.80;;;6.33;;
3815;SDS011;1923;48.154;11.536;2023-06-19T00:51:57;9.87;;;6.40;;
3815;SDS011;1923;48.154;11.536;2023-06-19T00:54:27;11.47;;;6.67;;
3815;SDS011;1923;48.154;11.536;2023-06-19T00:56:56;9.07;;;6.20;;
3815;SDS011;1923;48.154;11.536;2023-06-19T00:59:24;13.20;;;7.70;;
3815;SDS011;1923;48.154;11.536;2023-06-19T01:01:53;8.93;;;6.50;;
3815;SDS011;1923;48.154;11.536;2023-06-19T01:04:21;8.43;;;5.90;;
3815;SDS011;1923;48.154;11.536;2023-06-19T01:06:52;10.33;;;7.20;;
3815;SDS011;1923;48.154;11.536;2023-06-19T01:09:26;10.80;;;6.60;;
3815;SDS011;1923;48.154;11.536;2023-06-19T01:11:58;10.50;;;7.07;;
3815;SDS011;1923;48.154;11.536;2023-06-19T01:14:34;9.70;;;6.60;;
3815;SDS011;1923;48.154;11.536;2023-06-19T01:17:05;10.30;;;6.40;;
3815;SDS011;1923;48.154;11.536;2023-06-19T01:19:33;8.90;;;6.33;;
3815;SDS011;1923;48.154;11.536;2023-06-19T01:22:03;11.20;;;6.77;;
3815;SDS011;1923;48.154;11.536;2023-06-19T01:24:32;9.80;;;7.03;;
3815;SDS011;1923;48.154;11.536;2023-06-19T01:27:00;10.00;;;6.77;;
3815;SDS011;1923;48.154;11.536;2023-06-19T01:29:29;9.03;;;6.77;;
3815;SDS011;1923;48.154;11.536;2023-06-19T01:31:58;10.10;;;6.50;;
3815;SDS011;1923;48.154;11.536;2023-06-19T01:34:31;11.07;;;6.63;;
3815;SDS011;1923;48.154;11.536;2023-06-19T01:37:07;11.50;;;7.27;;
3815;SDS011;1923;48.154;11.536;2023-06-19T01:39:38;12.17;;;7.33;;
3815;SDS011;1923;48.154;11.536;2023-06-19T01:42:07;7.80;;;6.20;;
3815;SDS011;1923;48.154;11.536;2023-06-19T01:44:37;12.20;;;7.60;;
3815;SDS011;1923;48.154;11.536;2023-06-19T01:47:09;13.23;;;7.17;;
3815;SDS011;1923;48.154;11.536;2023-06-19T01:49:38;10.63;;;6.27;;
3815;SDS011;1923;48.154;11.536;2023-06-19T01:52:08;10.53;;;6.47;;
3815;SDS011;1923;48.154;11.536;2023-06-19T01:54:36;8.33;;;6.37;;
3815;SDS011;1923;48.154;11.536;2023-06-19T01:57:04;8.77;;;6.87;;
3815;SDS011;1923;48.154;11.536;2023-06-19T01:59:33;9.17;;;6.93;;
3815;SDS011;1923;48.154;11.536;2023-06-19T02:02:00;8.77;;;7.07;;
3815;SDS011;1923;48.154;11.536;2023-06-19T02:04:30;10.20;;;6.80;;
3815;SDS011;1923;48.154;11.536;2023-06-19T02:06:58;11.90;;;7.07;;
3815;SDS011;1923;48.154;11.536;2023-06-19T02:09:27;10.63;;;7.53;;
3815;SDS011;1923;48.154;11.536;2023-06-19T02:11:55;11.50;;;7.57;;
3815;SDS011;1923;48.154;11.536;2023-06-19T02:14:23;10.87;;;6.70;;
3815;SDS011;1923;48.154;11.536;2023-06-19T02:16:51;9.53;;;6.50;;
3815;SDS011;1923;48.154;11.536;2023-06-19T02:19:20;10.47;;;7.53;;
3815;SDS011;1923;48.154;11.536;2023-06-19T02:21:47;10.40;;;6.97;;
3815;SDS011;1923;48.154;11.536;2023-06-19T02:24:15;10.53;;;6.60;;
3815;SDS011;1923;48.154;11.536;2023-06-19T02:26:45;18.93;;;7.70;;
3815;SDS011;1923;48.154;11.536;2023-06-19T02:29:13;9.97;;;6.83;;
3815;SDS011;1923;48.154;11.536;2023-06-19T02:31:41;8.77;;;6.53;;
3815;SDS011;1923;48.154;11.536;2023-06-19T02:34:09;9.57;;;6.73;;
3815;SDS011;1923;48.154;11.536;2023-06-19T02:36:37;11.50;;;7.57;;
3815;SDS011;1923;48.154;11.536;2023-06-19T02:39:05;10.87;;;7.30;;
3815;SDS011;1923;48.154;11.536;2023-06-19T02:41:33;10.63;;;7.83;;
3815;SDS011;1923;48.154;11.536;2023-06-19T02:44:03;9.30;;;6.60;;
3815;SDS011;1923;48.154;11.536;2023-06-19T02:46:31;10.87;;;6.83;;
3815;SDS011;1923;48.154;11.536;2023-06-19T02:48:59;11.20;;;7.27;;
3815;SDS011;1923;48.154;11.536;2023-06-19T02:51:28;8.20;;;6.27;;
3815;SDS011;1923;48.154;11.536;2023-06-19T02:53:56;11.70;;;7.20;;
3815;SDS011;1923;48.154;11.536;2023-06-19T02:56:24;8.40;;;6.40;;
3815;SDS011;1923;48.154;11.536;2023-06-19T02:58:53;9.27;;;6.33;;
3815;SDS011;1923;48.154;11.536;2023-06-19T03:01:23;10.47;;;6.50;;
3815;SDS011;1923;48.154;11.536;2023-06-19T03:03:51;11.40;;;7.53;;
3815;SDS011;1923;48.154;11.536;2023-06-19T03:06:19;10.00;;;7.07;;
3815;SDS011;1923;48.154;11.536;2023-06-19T03:08:47;13.03;;;6.53;;
3815;SDS011;1923;48.154;11.536;2023-06-19T03:11:15;10.33;;;6.87;;
3815;SDS011;1923;48.154;11.536;2023-06-19T03:13:44;9.97;;;6.80;;
3815;SDS011;1923;48.154;11.536;2023-06-19T03:16:15;10.87;;;6.97;;
3815;SDS011;1923;48.154;11.536;2023-06-19T03:18:44;10.50;;;7.23;;
3815;SDS011;1923;48.154;11.536;2023-06-19T03:21:16;10.40;;;7.93;;
3815;SDS011;1923;48.154;11.536;2023-06-19T03:23:45;12.37;;;8.40;;
3815;SDS011;1923;48.154;11.536;2023-06-19T03:26:13;11.90;;;7.80;;
3815;SDS011;1923;48.154;11.536;2023-06-19T03:28:41;9.93;;;7.30;;
3815;SDS011;1923;48.154;11.536;2023-06-19T03:31:09;9.50;;;6.80;;
3815;SDS011;1923;48.154;11.536;2023-06-19T03:33:37;9.60;;;6.80;;
3815;SDS011;1923;48.154;11.536;2023-06-19T03:36:07;9.47;;;6.83;;
3815;SDS011;1923;48.154;11.536;2023-06-19T03:38:35;11.47;;;7.30;;
3815;SDS011;1923;48.154;11.536;2023-06-19T03:41:03;11.80;;;8.13;;
3815;SDS011;1923;48.154;11.536;2023-06-19T03:43:31;10.73;;;7.20;;
3815;SDS011;1923;48.154;11.536;2023-06-19T03:45:59;8.67;;;6.87;;
3815;SDS011;1923;48.154;11.536;2023-06-19T03:48:27;11.10;;;7.40;;
3815;SDS011;1923;48.154;11.536;2023-06-19T03:50:55;12.03;;;7.57;;
3815;SDS011;1923;48.154;11.536;2023-06-19T03:53:24;11.40;;;6.30;;
3815;SDS011;1923;48.154;11.536;2023-06-19T03:55:52;12.40;;;7.33;;
3815;SDS011;1923;48.154;11.536;2023-06-19T03:58:22;11.83;;;8.27;;
3815;SDS011;1923;48.154;11.536;2023-06-19T04:00:50;11.20;;;7.93;;
3815;SDS011;1923;48.154;11.536;2023-06-19T04:03:19;11.37;;;7.27;;
3815;SDS011;1923;48.154;11.536;2023-06-19T04:05:47;15.00;;;7.93;;
3815;SDS011;1923;48.154;11.536;2023-06-19T04:08:15;12.20;;;7.23;;
3815;SDS011;1923;48.154;11.536;2023-06-19T04:10:45;11.63;;;7.30;;
3815;SDS011;1923;48.154;11.536;2023-06-19T04:13:13;11.07;;;6.67;;
3815;SDS011;1923;48.154;11.536;2023-06-19T04:15:42;13.50;;;7.57;;
3815;SDS011;1923;48.154;11.536;2023-06-19T04:18:15;10.37;;;7.43;;
3815;SDS011;1923;48.154;11.536;2023-06-19T04:20:43;9.73;;;7.17;;
3815;SDS011;1923;48.154;11.536;2023-06-19T04:23:11;11.30;;;8.10;;
3815;SDS011;1923;48.154;11.536;2023-06-19T04:25:39;10.53;;;7.30;;
3815;SDS011;1923;48.154;11.536;2023-06-19T04:28:09;10.23;;;7.80;;
3815;SDS011;1923;48.154;11.536;2023-06-19T04:30:37;11.03;;;7.57;;
3815;SDS011;1923;48.154;11.536;2023-06-19T04:33:06;10.60;;;7.20;;
3815;SDS011;1923;48.154;11.536;2023-06-19T04:35:35;11.83;;;8.27;;
3815;SDS011;1923;48.154;11.536;2023-06-19T04:38:06;11.30;;;7.10;;
3815;SDS011;1923;48.154;11.536;2023-06-19T04:40:35;11.40;;;7.47;;
3815;SDS011;1923;48.154;11.536;2023-06-19T04:43:03;8.60;;;6.60;;
3815;SDS011;1923;48.154;11.536;2023-06-19T04:45:34;16.70;;;9.63;;
3815;SDS011;1923;48.154;11.536;2023-06-19T04:48:02;12.13;;;8.10;;
3815;SDS011;1923;48.154;11.536;2023-06-19T04:50:31;19.43;;;9.50;;
3815;SDS011;1923;48.154;11.536;2023-06-19T04:52:58;16.30;;;7.43;;
3815;SDS011;1923;48.154;11.536;2023-06-19T04:55:26;17.07;;;8.87;;
3815;SDS011;1923;48.154;11.536;2023-06-19T04:57:55;11.03;;;7.57;;
3815;SDS011;1923;48.154;11.536;2023-06-19T05:00:23;10.77;;;7.40;;
3815;SDS011;1923;48.154;11.536;2023-06-19T05:02:52;12.07;;;7.50;;
3815;SDS011;1923;48.154;11.536;2023-06-19T05:05:26;13.87;;;9.60;;
3815;SDS011;1923;48.154;11.536;2023-06-19T05:07:54;16.00;;;9.43;;
3815;SDS011;1923;48.154;11.536;2023-06-19T05:10:22;11.60;;;8.60;;
3815;SDS011;1923;48.154;11.536;2023-06-19T05:12:51;16.10;;;9.23;;
3815;SDS011;1923;48.154;11.536;2023-06-19T05:15:19;13.13;;;9.13;;
3815;SDS011;1923;48.154;11.536;2023-06-19T05:17:47;12.70;;;9.10;;
3815;SDS011;1923;48.154;11.536;2023-06-19T05:20:16;9.73;;;7.03;;
3815;SDS011;1923;48.154;11.536;2023-06-19T05:22:44;15.20;;;8.00;;
3815;SDS011;1923;48.154;11.536;2023-06-19T05:25:12;14.07;;;8.30;;
3815;SDS011;1923;48.154;11.536;2023-06-19T05:27:41;12.93;;;8.53;;
3815;SDS011;1923;48.154;11.536;2023-06-19T05:30:09;10.20;;;7.50;;
3815;SDS011;1923;48.154;11.536;2023-06-19T05:32:38;11.53;;;7.20;;
3815;SDS011;1923;48.154;11.536;2023-06-19T05:35:06;11.53;;;7.00;;
3815;SDS011;1923;48.154;11.536;2023-06-19T05:37:36;11.57;;;7.70;;
3815;SDS011;1923;48.154;11.536;2023-06-19T05:40:06;11.83;;;7.10;;
3815;SDS011;1923;48.154;11.536;2023-06-19T05:42:36;8.07;;;5.83;;
3815;SDS011;1923;48.154;11.536;2023-06-19T05:45:04;7.70;;;6.23;;
3815;SDS011;1923;48.154;11.536;2023-06-19T05:47:33;10.73;;;6.77;;
3815;SDS011;1923;48.154;11.536;2023-06-19T05:50:01;10.80;;;6.17;;
3815;SDS011;1923;48.154;11.536;2023-06-19T05:52:29;9.70;;;6.17;;
3815;SDS011;1923;48.154;11.536;2023-06-19T05:54:59;7.90;;;6.07;;
3815;SDS011;1923;48.154;11.536;2023-06-19T05:57:27;9.27;;;5.90;;
3815;SDS011;1923;48.154;11.536;2023-06-19T05:59:55;8.03;;;6.03;;
3815;SDS011;1923;48.154;11.536;2023-06-19T06:02:23;13.10;;;6.40;;
3815;SDS011;1923;48.154;11.536;2023-06-19T06:04:54;10.20;;;6.90;;
3815;SDS011;1923;48.154;11.536;2023-06-19T06:07:23;8.47;;;5.83;;
3815;SDS011;1923;48.154;11.536;2023-06-19T06:09:53;9.40;;;5.30;;
3815;SDS011;1923;48.154;11.536;2023-06-19T06:12:23;8.10;;;5.87;;
3815;SDS011;1923;48.154;11.536;2023-06-19T06:14:51;10.87;;;5.73;;
3815;SDS011;1923;48.154;11.536;2023-06-19T06:17:19;9.00;;;6.40;;
3815;SDS011;1923;48.154;11.536;2023-06-19T06:19:47;9.40;;;6.47;;
3815;SDS011;1923;48.154;11.536;2023-06-19T06:22:15;8.53;;;6.40;;
3815;SDS011;1923;48.154;11.536;2023-06-19T06:24:44;8.80;;;6.27;;
3815;SDS011;1923;48.154;11.536;2023-06-19T06:27:13;8.40;;;5.60;;
3815;SDS011;1923;48.154;11.536;2023-06-19T06:29:42;7.97;;;6.10;;
3815;SDS011;1923;48.154;11.536;2023-06-19T06:32:10;10.67;;;5.97;;
3815;SDS011;1923;48.154;11.536;2023-06-19T06:34:38;7.83;;;5.37;;
3815;SDS011;1923;48.154;11.536;2023-06-19T06:37:06;9.07;;;5.30;;
3815;SDS011;1923;48.154;11.536;2023-06-19T06:39:34;9.67;;;6.17;;
3815;SDS011;1923;48.154;11.536;2023-06-19T06:42:02;10.43;;;6.30;;
3815;SDS011;1923;48.154;11.536;2023-06-19T06:44:31;11.07;;;6.17;;
3815;SDS011;1923;48.154;11.536;2023-06-19T06:47:01;8.15;;;6.00;;
3815;SDS011;1923;48.154;11.536;2023-06-19T06:49:29;6.73;;;5.23;;
3815;SDS011;1923;48.154;11.536;2023-06-19T06:51:57;7.10;;;5.30;;
3815;SDS011;1923;48.154;11.536;2023-06-19T06:54:25;9.63;;;6.00;;
3815;SDS011;1923;48.154;11.536;2023-06-19T06:56:53;14.37;;;5.60;;
3815;SDS011;1923;48.154;11.536;2023-06-19T06:59:23;10.30;;;5.90;;
3815;SDS011;1923;48.154;11.536;2023-06-19T07:01:51;7.50;;;4.67;;
3815;SDS011;1923;48.154;11.536;2023-06-19T07:04:21;6.83;;;5.40;;
3815;SDS011;1923;48.154;11.536;2023-06-19T07:06:49;9.00;;;6.07;;
3815;SDS011;1923;48.154;11.536;2023-06-19T07:09:17;7.70;;;5.10;;
3815;SDS011;1923;48.154;11.536;2023-06-19T07:11:47;8.77;;;4.70;;
3815;SDS011;1923;48.154;11.536;2023-06-19T07:14:19;7.90;;;4.43;;
3815;SDS011;1923;48.154;11.536;2023-06-19T07:16:48;6.97;;;4.90;;
3815;SDS011;1923;48.154;11.536;2023-06-19T07:19:17;5.17;;;4.30;;
3815;SDS011;1923;48.154;11.536;2023-06-19T07:21:47;10.37;;;4.33;;
3815;SDS011;1923;48.154;11.536;2023-06-19T07:24:16;10.60;;;4.67;;
3815;SDS011;1923;48.154;11.536;2023-06-19T07:26:45;7.80;;;5.17;;
3815;SDS011;1923;48.154;11.536;2023-06-19T07:29:13;8.60;;;5.03;;
3815;SDS011;1923;48.154;11.536;2023-06-19T07:31:41;7.50;;;4.90;;
3815;SDS011;1923;48.154;11.536;2023-06-19T07:34:09;5.20;;;4.23;;
3815;SDS011;1923;48.154;11.536;2023-06-19T07:36:37;7.20;;;4.40;;
3815;SDS011;1923;48.154;11.536;2023-06-19T07:39:07;8.20;;;4.57;;
3815;SDS011;1923;48.154;11.536;2023-06-19T07:41:36;6.03;;;4.57;;
3815;SDS011;1923;48.154;11.536;2023-06-19T07:44:04;7.83;;;5.47;;
3815;SDS011;1923;48.154;11.536;2023-06-19T07:46:32;5.50;;;4.10;;
3815;SDS011;1923;48.154;11.536;2023-06-19T07:49:00;4.87;;;3.90;;
3815;SDS011;1923;48.154;11.536;2023-06-19T07:51:28;5.17;;;4.00;;
3815;SDS011;1923;48.154;11.536;2023-06-19T07:53:56;5.97;;;3.70;;
3815;SDS011;1923;48.154;11.536;2023-06-19T07:56:25;4.60;;;3.40;;
3815;SDS011;1923;48.154;11.536;2023-06-19T07:58:53;8.50;;;4.10;;
3815;SDS011;1923;48.154;11.536;2023-06-19T08:01:22;8.80;;;3.97;;
3815;SDS011;1923;48.154;11.536;2023-06-19T08:03:50;4.80;;;3.37;;
3815;SDS011;1923;48.154;11.536;2023-06-19T08:06:19;5.97;;;3.70;;
3815;SDS011;1923;48.154;11.536;2023-06-19T08:08:47;7.40;;;3.93;;
3815;SDS011;1923;48.154;11.536;2023-06-19T08:11:15;4.40;;;3.50;;
3815;SDS011;1923;48.154;11.536;2023-06-19T08:13:44;6.70;;;3.80;;
3815;SDS011;1923;48.154;11.536;2023-06-19T08:16:13;5.13;;;3.47;;
3815;SDS011;1923;48.154;11.536;2023-06-19T08:18:41;4.87;;;3.83;;
3815;SDS011;1923;48.154;11.536;2023-06-19T08:21:09;5.23;;;3.80;;
3815;SDS011;1923;48.154;11.536;2023-06-19T08:23:38;4.60;;;3.77;;
3815;SDS011;1923;48.154;11.536;2023-06-19T08:26:06;4.20;;;3.37;;
3815;SDS011;1923;48.154;11.536;2023-06-19T08:28:35;4.23;;;3.00;;
3815;SDS011;1923;48.154;11.536;2023-06-19T08:31:06;3.87;;;3.47;;
3815;SDS011;1923;48.154;11.536;2023-06-19T08:33:34;3.97;;;3.00;;
3815;SDS011;1923;48.154;11.536;2023-06-19T08:36:02;3.70;;;2.87;;
3815;SDS011;1923;48.154;11.536;2023-06-19T08:38:31;3.57;;;3.07;;
3815;SDS011;1923;48.154;11.536;2023-06-19T08:40:59;6.63;;;3.00;;
3815;SDS011;1923;48.154;11.536;2023-06-19T08:43:27;3.50;;;2.63;;
3815;SDS011;1923;48.154;11.536;2023-06-19T08:45:58;3.50;;;2.80;;
3815;SDS011;1923;48.154;11.536;2023-06-19T08:48:37;5.40;;;3.10;;
3815;SDS011;1923;48.154;11.536;2023-06-19T08:51:06;4.83;;;3.13;;
3815;SDS011;1923;48.154;11.536;2023-06-19T08:53:35;3.70;;;2.93;;
3815;SDS011;1923;48.154;11.536;2023-06-19T08:56:04;2.87;;;2.60;;
3815;SDS011;1923;48.154;11.536;2023-06-19T08:58:32;1.83;;;1.40;;
3815;SDS011;1923;48.154;11.536;2023-06-19T09:01:00;1.80;;;1.40;;
3815;SDS011;1923;48.154;11.536;2023-06-19T09:03:30;1.50;;;1.20;;
3815;SDS011;1923;48.154;11.536;2023-06-19T09:05:59;1.40;;;1.20;;
3815;SDS011;1923;48.154;11.536;2023-06-19T09:08:30;1.43;;;1.30;;
3815;SDS011;1923;48.154;11.536;2023-06-19T09:10:59;2.67;;;2.10;;
3815;SDS011;1923;48.154;11.536;2023-06-19T09:13:29;3.50;;;2.40;;
3815;SDS011;1923;48.154;11.536;2023-06-19T09:15:58;2.40;;;2.20;;
3815;SDS011;1923;48.154;11.536;2023-06-19T09:18:30;5.00;;;2.20;;
3815;SDS011;1923;48.154;11.536;2023-06-19T09:20:58;3.03;;;2.53;;
3815;SDS011;1923;48.154;11.536;2023-06-19T09:23:26;4.20;;;2.67;;
3815;SDS011;1923;48.154;11.536;2023-06-19T09:25:56;3.47;;;2.50;;
3815;SDS011;1923;48.154;11.536;2023-06-19T09:28:25;3.83;;;2.70;;
3815;SDS011;1923;48.154;11.536;2023-06-19T09:30:55;3.70;;;3.13;;
3815;SDS011;1923;48.154;11.536;2023-06-19T09:33:25;4.63;;;3.23;;
3815;SDS011;1923;48.154;11.536;2023-06-19T09:35:55;4.20;;;3.43;;
3815;SDS011;1923;48.154;11.536;2023-06-19T09:38:25;4.37;;;3.20;;
3815;SDS011;1923;48.154;11.536;2023-06-19T09:40:55;5.07;;;3.50;;
3815;SDS011;1923;48.154;11.536;2023-06-19T09:43:26;4.07;;;3.33;;
3815;SDS011;1923;48.154;11.536;2023-06-19T09:46:00;4.93;;;3.87;;
3815;SDS011;1923;48.154;11.536;2023-06-19T09:48:31;5.10;;;3.37;;
3815;SDS011;1923;48.154;11.536;2023-06-19T09:51:09;3.77;;;2.90;;
3815;SDS011;1923;48.154;11.536;2023-06-19T09:53:43;2.97;;;2.60;;
3815;SDS011;1923;48.154;11.536;2023-06-19T09:56:13;3.00;;;2.70;;
3815;SDS011;1923;48.154;11.536;2023-06-19T09:58:42;3.20;;;2.90;;
3815;SDS011;1923;48.154;11.536;2023-06-19T10:01:11;2.87;;;2.57;;
3815;SDS011;1923;48.154;11.536;2023-06-19T10:03:40;3.77;;;2.90;;
3815;SDS011;1923;48.154;11.536;2023-06-19T10:06:13;3.60;;;2.97;;
3815;SDS011;1923;48.154;11.536;2023-06-19T10:08:43;4.30;;;2.67;;
3815;SDS011;1923;48.154;11.536;2023-06-19T10:11:13;2.90;;;2.60;;
3815;SDS011;1923;48.154;11.536;2023-06-19T10:13:41;2.50;;;2.30;;
3815;SDS011;1923;48.154;11.536;2023-06-19T10:16:19;4.00;;;2.90;;
3815;SDS011;1923;48.154;11.536;2023-06-19T10:18:48;3.63;;;2.60;;
3815;SDS011;1923;48.154;11.536;2023-06-19T10:21:19;4.80;;;2.90;;
3815;SDS011;1923;48.154;11.536;2023-06-19T10:23:53;3.20;;;2.83;;
3815;SDS011;1923;48.154;11.536;2023-06-19T10:26:29;2.60;;;2.40;;
3815;SDS011;1923;48.154;11.536;2023-06-19T10:28:58;3.10;;;2.73;;
3815;SDS011;1923;48.154;11.536;2023-06-19T10:31:27;2.50;;;2.30;;
3815;SDS011;1923;48.154;11.536;2023-06-19T10:33:56;3.17;;;2.50;;
3815;SDS011;1923;48.154;11.536;2023-06-19T10:36:25;2.50;;;2.30;;
3815;SDS011;1923;48.154;11.536;2023-06-19T10:38:53;3.10;;;2.47;;
3815;SDS011;1923;48.154;11.536;2023-06-19T10:41:22;3.33;;;2.50;;
3815;SDS011;1923;48.154;11.536;2023-06-19T10:43:55;2.53;;;2.33;;
3815;SDS011;1923;48.154;11.536;2023-06-19T10:46:24;2.33;;;2.13;;
3815;SDS011;1923;48.154;11.536;2023-06-19T10:48:57;2.07;;;1.90;;
3815;SDS011;1923;48.154;11.536;2023-06-19T10:51:29;1.90;;;1.80;;
3815;SDS011;1923;48.154;11.536;2023-06-19T10:53:57;3.43;;;2.47;;
3815;SDS011;1923;48.154;11.536;2023-06-19T10:56:25;2.13;;;1.93;;
3815;SDS011;1923;48.154;11.536;2023-06-19T10:58:57;1.63;;;1.30;;
3815;SDS011;1923;48.154;11.536;2023-06-19T11:01:33;1.90;;;1.80;;
3815;SDS011;1923;48.154;11.536;2023-06-19T11:04:03;2.07;;;1.87;;
3815;SDS011;1923;48.154;11.536;2023-06-19T11:06:34;2.20;;;2.00;;
3815;SDS011;1923;48.154;11.536;2023-06-19T11:09:03;2.40;;;1.87;;
3815;SDS011;1923;48.154;11.536;2023-06-19T11:11:38;1.90;;;1.70;;
3815;SDS011;1923;48.154;11.536;2023-06-19T11:14:07;2.77;;;1.93;;
3815;SDS011;1923;48.154;11.536;2023-06-19T11:16:37;2.67;;;2.10;;
3815;SDS011;1923;48.154;11.536;2023-06-19T11:19:06;2.67;;;2.03;;
3815;SDS011;1923;48.154;11.536;2023-06-19T11:21:36;2.40;;;2.00;;
3815;SDS011;1923;48.154;11.536;2023-06-19T11:24:05;2.17;;;1.97;;
3815;SDS011;1923;48.154;11.536;2023-06-19T11:26:39;1.87;;;1.77;;
3815;SDS011;1923;48.154;11.536;2023-06-19T11:29:13;2.67;;;2.00;;
3815;SDS011;1923;48.154;11.536;2023-06-19T11:31:42;2.17;;;1.97;;
3815;SDS011;1923;48.154;11.536;2023-06-19T11:34:10;2.90;;;2.20;;
3815;SDS011;1923;48.154;11.536;2023-06-19T11:36:40;1.80;;;1.70;;
3815;SDS011;1923;48.154;11.536;2023-06-19T11:39:10;2.40;;;2.03;;
3815;SDS011;1923;48.154;11.536;2023-06-19T11:41:40;3.97;;;2.30;;
3815;SDS011;1923;48.154;11.536;2023-06-19T11:44:08;2.53;;;1.90;;
3815;SDS011;1923;48.154;11.536;2023-06-19T11:46:37;6.23;;;2.37;;
3815;SDS011;1923;48.154;11.536;2023-06-19T11:49:09;3.77;;;2.10;;
3815;SDS011;1923;48.154;11.536;2023-06-19T11:51:38;2.97;;;2.40;;
3815;SDS011;1923;48.154;11.536;2023-06-19T11:54:08;2.80;;;2.27;;
3815;SDS011;1923;48.154;11.536;2023-06-19T11:56:38;3.00;;;2.40;;
3815;SDS011;1923;48.154;11.536;2023-06-19T11:59:06;3.57;;;2.50;;
3815;SDS011;1923;48.154;11.536;2023-06-19T12:01:35;3.67;;;2.40;;
3815;SDS011;1923;48.154;11.536;2023-06-19T12:04:05;1.87;;;1.77;;
3815;SDS011;1923;48.154;11.536;2023-06-19T12:06:34;2.87;;;2.07;;
3815;SDS011;1923;48.154;11.536;2023-06-19T12:09:03;3.37;;;2.03;;
3815;SDS011;1923;48.154;11.536;2023-06-19T12:11:33;3.50;;;2.67;;
3815;SDS011;1923;48.154;11.536;2023-06-19T12:14:02;2.27;;;2.00;;
3815;SDS011;1923;48.154;11.536;2023-06-19T12:16:30;2.33;;;1.70;;
3815;SDS011;1923;48.154;11.536;2023-06-19T12:18:58;3.23;;;2.20;;
3815;SDS011;1923;48.154;11.536;2023-06-19T12:21:26;2.33;;;1.87;;
3815;SDS011;1923;48.154;11.536;2023-06-19T12:24:04;3.27;;;2.27;;
3815;SDS011;1923;48.154;11.536;2023-06-19T12:26:35;2.13;;;1.93;;
3815;SDS011;1923;48.154;11.536;2023-06-19T12:29:04;3.00;;;2.40;;
3815;SDS011;1923;48.154;11.536;2023-06-19T12:31:33;1.70;;;1.60;;
3815;SDS011;1923;48.154;11.536;2023-06-19T12:34:03;1.90;;;1.60;;
3815;SDS011;1923;48.154;11.536;2023-06-19T12:36:52;2.50;;;2.10;;
3815;SDS011;1923;48.154;11.536;2023-06-19T12:39:23;3.20;;;2.10;;
3815;SDS011;1923;48.154;11.536;2023-06-19T12:41:54;2.40;;;2.17;;
3815;SDS011;1923;48.154;11.536;2023-06-19T12:44:22;2.73;;;2.07;;
3815;SDS011;1923;48.154;11.536;2023-06-19T12:46:50;4.37;;;2.80;;
3815;SDS011;1923;48.154;11.536;2023-06-19T12:49:19;2.43;;;2.20;;
3815;SDS011;1923;48.154;11.536;2023-06-19T12:51:47;2.27;;;2.07;;
3815;SDS011;1923;48.154;11.536;2023-06-19T12:54:18;2.87;;;2.13;;
3815;SDS011;1923;48.154;11.536;2023-06-19T12:56:46;3.73;;;2.83;;
3815;SDS011;1923;48.154;11.536;2023-06-19T12:59:16;3.73;;;2.33;;
3815;SDS011;1923;48.154;11.536;2023-06-19T13:01:44;2.73;;;2.40;;
3815;SDS011;1923;48.154;11.536;2023-06-19T13:04:12;2.70;;;2.10;;
3815;SDS011;1923;48.154;11.536;2023-06-19T13:06:41;3.23;;;1.93;;
3815;SDS011;1923;48.154;11.536;2023-06-19T13:09:09;2.70;;;2.30;;
3815;SDS011;1923;48.154;11.536;2023-06-19T13:11:37;4.10;;;2.77;;
3815;SDS011;1923;48.154;11.536;2023-06-19T13:14:05;3.13;;;2.30;;
3815;SDS011;1923;48.154;11.536;2023-06-19T13:16:35;3.73;;;2.50;;
3815;SDS011;1923;48.154;11.536;2023-06-19T13:19:11;4.20;;;2.97;;
3815;SDS011;1923;48.154;11.536;2023-06-19T13:21:40;4.03;;;2.60;;
3815;SDS011;1923;48.154;11.536;2023-06-19T13:24:08;2.80;;;2.40;;
3815;SDS011;1923;48.154;11.536;2023-06-19T13:26:36;2.80;;;2.37;;
3815;SDS011;1923;48.154;11.536;2023-06-19T13:29:04;6.23;;;2.97;;
3815;SDS011;1923;48.154;11.536;2023-06-19T13:31:33;3.40;;;2.70;;
3815;SDS011;1923;48.154;11.536;2023-06-19T13:34:02;3.37;;;2.57;;
3815;SDS011;1923;48.154;11.536;2023-06-19T13:36:30;4.20;;;2.80;;
3815;SDS011;1923;48.154;11.536;2023-06-19T13:38:58;4.07;;;2.87;;
3815;SDS011;1923;48.154;11.536;2023-06-19T13:41:26;4.63;;;2.80;;
3815;SDS011;1923;48.154;11.536;2023-06-19T13:43:57;4.97;;;2.27;;
3815;SDS011;1923;48.154;11.536;2023-06-19T13:46:25;4.13;;;2.57;;
3815;SDS011;1923;48.154;11.536;2023-06-19T13:48:54;2.87;;;2.53;;
3815;SDS011;1923;48.154;11.536;2023-06-19T13:51:22;4.60;;;2.70;;
3815;SDS011;1923;48.154;11.536;2023-06-19T13:53:51;3.33;;;2.57;;
3815;SDS011;1923;48.154;11.536;2023-06-19T13:56:20;7.83;;;2.40;;
3815;SDS011;1923;48.154;11.536;2023-06-19T13:58:50;3.67;;;2.57;;
3815;SDS011;1923;48.154;11.536;2023-06-19T14:01:18;3.43;;;2.43;;
3815;SDS011;1923;48.154;11.536;2023-06-19T14:03:47;5.17;;;3.30;;
3815;SDS011;1923;48.154;11.536;2023-06-19T14:06:16;3.40;;;2.60;;
3815;SDS011;1923;48.154;11.536;2023-06-19T14:08:44;4.67;;;2.50;;
3815;SDS011;1923;48.154;11.536;2023-06-19T14:11:12;2.80;;;2.27;;
3815;SDS011;1923;48.154;11.536;2023-06-19T14:13:40;5.43;;;3.00;;
3815;SDS011;1923;48.154;11.536;2023-06-19T14:16:08;3.23;;;2.60;;
3815;SDS011;1923;48.154;11.536;2023-06-19T14:18:37;3.33;;;2.77;;
3815;SDS011;1923;48.154;11.536;2023-06-19T14:21:05;3.23;;;2.60;;
3815;SDS011;1923;48.154;11.536;2023-06-19T14:23:34;5.33;;;3.87;;
3815;SDS011;1923;48.154;11.536;2023-06-19T14:26:06;4.27;;;2.70;;
3815;SDS011;1923;48.154;11.536;2023-06-19T14:28:36;3.50;;;2.53;;
3815;SDS011;1923;48.154;11.536;2023-06-19T14:31:05;3.53;;;2.87;;
3815;SDS011;1923;48.154;11.536;2023-06-19T14:33:33;3.27;;;2.67;;
3815;SDS011;1923;48.154;11.536;2023-06-19T14:36:03;4.00;;;2.60;;
3815;SDS011;1923;48.154;11.536;2023-06-19T14:38:31;4.03;;;2.80;;
3815;SDS011;1923;48.154;11.536;2023-06-19T14:41:01;4.20;;;2.90;;
3815;SDS011;1923;48.154;11.536;2023-06-19T14:43:29;3.50;;;2.53;;
3815;SDS011;1923;48.154;11.536;2023-06-19T14:46:00;4.30;;;3.00;;
3815;SDS011;1923;48.154;11.536;2023-06-19T14:48:30;3.90;;;3.17;;
3815;SDS011;1923;48.154;11.536;2023-06-19T14:50:58;3.13;;;2.80;;
3815;SDS011;1923;48.154;11.536;2023-06-19T14:53:27;3.70;;;2.77;;
3815;SDS011;1923;48.154;11.536;2023-06-19T14:55:55;4.03;;;3.13;;
3815;SDS011;1923;48.154;11.536;2023-06-19T14:58:25;3.53;;;2.83;;
3815;SDS011;1923;48.154;11.536;2023-06-19T15:00:55;4.10;;;2.80;;
3815;SDS011;1923;48.154;11.536;2023-06-19T15:03:24;5.07;;;3.23;;
3815;SDS011;1923;48.154;11.536;2023-06-19T15:05:53;4.80;;;3.20;;
3815;SDS011;1923;48.154;11.536;2023-06-19T15:08:21;4.50;;;3.00;;
3815;SDS011;1923;48.154;11.536;2023-06-19T15:10:50;3.50;;;3.20;;